Terminal Aerodrome Forecast
Issued by NWS

Home | Current Version | Previous Version | Graphics & Text | Print | Product List | Glossary On
Versions: 1 2 3 4 5 6 7 8 9 10 11 12 13 14 15 16 17 18 19 20 21 22 23 24 25 26 27 28 29 30 31 32
000
FTUS43 KABR 201700 RRA
TAFMBG
TAF
KMBG 201741Z 2018/2118 15010KT P6SM SCT100 BKN250
     FM202200 13009KT P6SM -SHRA VCTS BKN070CB
      TEMPO 2023/2103 5SM SHRA BKN050
     FM210300 14006KT P6SM BKN150
     FM210700 35008KT P6SM SKC=

USA.gov is the U.S. government's official web portal to all federal, state and local government web resources and services.